TimeEDT,TemperatureF,Dew PointF,Humidity,Sea Level PressureIn,VisibilityMPH,Wind Direction,Wind SpeedMPH,Gust SpeedMPH,PrecipitationIn,Events,Conditions,WindDirDegrees,DateUTC
12:03 AM,69.8,66.2,88,29.91,9.0,SSW,3.5,-,0.00,Rain,Light Rain,200,2013-08-02 04:03:00
12:26 AM,68.0,66.2,94,29.90,10.0,South,3.5,-,0.00,Rain,Light Rain,190,2013-08-02 04:26:00
12:53 AM,68.0,66.0,93,29.90,9.0,SE,4.6,-,0.01,Rain,Light Rain,140,2013-08-02 04:53:00
1:14 AM,66.2,64.4,94,29.88,10.0,ESE,5.8,-,0.00,,Overcast,110,2013-08-02 05:14:00
1:33 AM,68.0,64.4,88,29.87,10.0,East,3.5,-,0.00,,Overcast,80,2013-08-02 05:33:00
1:53 AM,66.9,64.9,93,29.87,9.0,East,3.5,-,0.00,,Overcast,100,2013-08-02 05:53:00
2:02 AM,66.2,66.2,100,29.87,8.0,East,3.5,-,N/A,,Overcast,90,2013-08-02 06:02:00
2:53 AM,66.9,64.9,93,29.84,8.0,SE,9.2,-,N/A,,Overcast,130,2013-08-02 06:53:00
3:53 AM,66.0,64.0,93,29.82,9.0,SE,11.5,-,N/A,,Mostly Cloudy,130,2013-08-02 07:53:00
4:19 AM,66.2,64.4,94,29.81,8.0,ESE,11.5,-,N/A,,Mostly Cloudy,120,2013-08-02 08:19:00
4:53 AM,66.0,64.9,96,29.82,8.0,ESE,8.1,-,N/A,,Overcast,120,2013-08-02 08:53:00
5:29 AM,66.2,64.4,94,29.82,8.0,SE,9.2,-,N/A,,Overcast,130,2013-08-02 09:29:00
5:36 AM,66.2,64.4,94,29.82,8.0,ESE,8.1,-,N/A,,Overcast,120,2013-08-02 09:36:00
5:53 AM,66.0,64.9,96,29.83,7.0,ESE,6.9,-,N/A,,Overcast,120,2013-08-02 09:53:00
6:53 AM,66.9,64.0,90,29.82,10.0,East,6.9,-,N/A,,Overcast,100,2013-08-02 10:53:00
7:53 AM,66.9,64.0,90,29.83,10.0,SE,9.2,-,N/A,,Clear,130,2013-08-02 11:53:00
8:53 AM,70.0,64.9,84,29.83,10.0,SE,5.8,-,N/A,,Mostly Cloudy,140,2013-08-02 12:53:00
9:53 AM,69.1,64.9,87,29.84,10.0,SSE,6.9,-,N/A,,Overcast,150,2013-08-02 13:53:00
10:53 AM,68.0,66.0,93,29.84,8.0,South,5.8,-,0.00,,Overcast,180,2013-08-02 14:53:00
11:53 AM,71.1,66.9,87,29.85,10.0,SSW,10.4,-,0.00,,Overcast,200,2013-08-02 15:53:00
11:59 AM,71.6,66.2,83,29.84,10.0,SSW,10.4,-,N/A,,Overcast,210,2013-08-02 15:59:00
12:39 PM,73.4,69.8,88,29.83,10.0,SW,11.5,-,N/A,,Mostly Cloudy,230,2013-08-02 16:39:00
12:53 PM,73.9,69.1,85,29.83,10.0,SW,13.8,-,N/A,,Scattered Clouds,230,2013-08-02 16:53:00
1:53 PM,75.0,69.1,82,29.84,10.0,SW,12.7,-,N/A,,Scattered Clouds,230,2013-08-02 17:53:00
2:53 PM,75.0,68.0,79,29.84,10.0,WSW,13.8,-,N/A,,Clear,250,2013-08-02 18:53:00
3:53 PM,73.9,66.9,79,29.84,10.0,WSW,16.1,23.0,N/A,,Clear,240,2013-08-02 19:53:00
4:53 PM,73.9,66.0,76,29.85,10.0,WSW,15.0,-,N/A,,Clear,250,2013-08-02 20:53:00
5:53 PM,72.0,66.0,81,29.86,10.0,WSW,17.3,-,N/A,,Clear,240,2013-08-02 21:53:00
6:53 PM,71.1,64.9,81,29.87,10.0,WSW,17.3,23.0,N/A,,Clear,250,2013-08-02 22:53:00
7:53 PM,69.1,66.0,90,29.88,10.0,WSW,16.1,-,N/A,,Clear,240,2013-08-02 23:53:00
8:53 PM,69.1,66.0,90,29.89,10.0,WSW,13.8,-,N/A,,Clear,250,2013-08-03 00:53:00
9:53 PM,69.1,66.0,90,29.91,9.0,WSW,11.5,-,N/A,,Clear,240,2013-08-03 01:53:00
10:53 PM,69.1,66.0,90,29.92,9.0,WSW,10.4,-,N/A,,Clear,240,2013-08-03 02:53:00
11:53 PM,69.1,66.9,93,29.92,8.0,SW,8.1,-,N/A,,Clear,220,2013-08-03 03:53:00